Lake Dynasty — 3FZB2 — position and weather

sailwx.info

Track history (hours):
 
Tides and Currents Weather Stations Pressure Air Temp Water Temp Dewpoint Dewpoint Depression Visibility Wind Speed Wind Dir Waves Ship Positions

Lake Dynasty

Last reported at 2015-Jan-25 14:14 UTC. Time now 2015-Jan-26 04:23 UTC.
Position N 08°46' E 124°01'.

Length 182 m; draft 12.1 m.

Type: Cargo ship. MMSI: 370957000.

Date/timePositionNaut miles runAvg speedWind from/ knotsBaromVisibWave heightAir tempDewpointWater temp
2015-Jan-25 14:14N 08°46' E 124°01'811.5
2015-Jan-25 13:33N 08°48' E 123°54'1311.6
2015-Jan-25 12:27N 08°48' E 123°41'1011.1
2015-Jan-25 11:33N 08°48' E 123°30'1310.4
2015-Jan-25 10:15N 08°48' E 123°17'2210.4
2015-Jan-25 08:06N 08°45' E 122°54'610.6
2015-Jan-25 07:33N 08°44' E 122°49'1110.6
2015-Jan-25 06:30N 08°43' E 122°38'1210.8
2015-Jan-25 05:26N 08°41' E 122°26'  
2015-Jan-20 18:33N 01°16' E 104°13'1110.8
2015-Jan-20 17:33N 01°15' E 104°02'4 2.5
2015-Jan-20 16:03N 01°17' E 103°59'0 0.0
2015-Jan-20 15:33N 01°17' E 103°59'0 0.0
2015-Jan-20 14:18N 01°17' E 103°59'0 0.0
2015-Jan-20 13:18N 01°17' E 103°59'0 0.0
2015-Jan-20 12:30N 01°17' E 103°59'0 0.1
2015-Jan-20 11:12N 01°17' E 103°59'0 0.0
2015-Jan-20 10:30N 01°17' E 103°59'0 0.0
2015-Jan-20 09:12N 01°17' E 103°59'0 0.0
2015-Jan-20 08:12N 01°17' E 103°59'0 0.0
2015-Jan-20 07:24N 01°17' E 103°59'0 0.0
2015-Jan-20 06:27N 01°17' E 103°59'0 0.0
2015-Jan-20 04:31N 01°17' E 103°59'0 0.2
2015-Jan-20 03:18N 01°17' E 103°59'0 0.1
2015-Jan-20 01:30N 01°17' E 103°59'0 0.0
2015-Jan-19 23:30N 01°17' E 103°59'0 0.0
2015-Jan-19 22:30N 01°17' E 103°59'0 0.0
2015-Jan-19 21:18N 01°17' E 103°59'0 0.0
2015-Jan-19 20:33N 01°17' E 103°59'0 0.0
2015-Jan-19 19:18N 01°17' E 103°59'0 0.0
2015-Jan-19 18:18N 01°17' E 103°59'0 0.0
2015-Jan-19 14:33N 01°17' E 103°59'0 0.0
2015-Jan-19 13:33N 01°17' E 103°59'0 0.0
2015-Jan-19 12:24N 01°17' E 103°59'0 0.0
2015-Jan-19 11:30N 01°17' E 103°59'1 1.3
2015-Jan-19 10:33N 01°16' E 103°59'4 3.7
2015-Jan-19 09:32N 01°16' E 104°02'8 8.0
2015-Jan-19 08:33N 01°17' E 104°10'  
2015-Jan-16 02:26S 04°18' E 115°02'9 8.6
2015-Jan-16 01:21S 04°09' E 115°05'  
Track history (hours):
 
Tides and Currents Weather Stations Pressure Air Temp Water Temp Dewpoint Dewpoint Depression Visibility Wind Speed Wind Dir Waves Ship Positions

Lake Dynasty

Last reported at 2015-Jan-25 14:14 UTC. Time now 2015-Jan-26 04:23 UTC.
Position N 08°46' E 124°01'.

Length 182 m; draft 12.1 m.

Type: Cargo ship. MMSI: 370957000.

Date/timePositionNaut miles runAvg speedWind from/ knotsBaromVisibWave heightAir tempDewpointWater temp
2015-Jan-25 14:14N 08°46' E 124°01'811.5
2015-Jan-25 13:33N 08°48' E 123°54'1311.6
2015-Jan-25 12:27N 08°48' E 123°41'1011.1
2015-Jan-25 11:33N 08°48' E 123°30'1310.4
2015-Jan-25 10:15N 08°48' E 123°17'2210.4
2015-Jan-25 08:06N 08°45' E 122°54'610.6
2015-Jan-25 07:33N 08°44' E 122°49'1110.6
2015-Jan-25 06:30N 08°43' E 122°38'1210.8
2015-Jan-25 05:26N 08°41' E 122°26'  
2015-Jan-20 18:33N 01°16' E 104°13'1110.8
2015-Jan-20 17:33N 01°15' E 104°02'4 2.5
2015-Jan-20 16:03N 01°17' E 103°59'0 0.0
2015-Jan-20 15:33N 01°17' E 103°59'0 0.0
2015-Jan-20 14:18N 01°17' E 103°59'0 0.0
2015-Jan-20 13:18N 01°17' E 103°59'0 0.0
2015-Jan-20 12:30N 01°17' E 103°59'0 0.1
2015-Jan-20 11:12N 01°17' E 103°59'0 0.0
2015-Jan-20 10:30N 01°17' E 103°59'0 0.0
2015-Jan-20 09:12N 01°17' E 103°59'0 0.0
2015-Jan-20 08:12N 01°17' E 103°59'0 0.0
2015-Jan-20 07:24N 01°17' E 103°59'0 0.0
2015-Jan-20 06:27N 01°17' E 103°59'0 0.0
2015-Jan-20 04:31N 01°17' E 103°59'0 0.2
2015-Jan-20 03:18N 01°17' E 103°59'0 0.1
2015-Jan-20 01:30N 01°17' E 103°59'0 0.0
2015-Jan-19 23:30N 01°17' E 103°59'0 0.0
2015-Jan-19 22:30N 01°17' E 103°59'0 0.0
2015-Jan-19 21:18N 01°17' E 103°59'0 0.0
2015-Jan-19 20:33N 01°17' E 103°59'0 0.0
2015-Jan-19 19:18N 01°17' E 103°59'0 0.0
2015-Jan-19 18:18N 01°17' E 103°59'0 0.0
2015-Jan-19 14:33N 01°17' E 103°59'0 0.0
2015-Jan-19 13:33N 01°17' E 103°59'0 0.0
2015-Jan-19 12:24N 01°17' E 103°59'0 0.0
2015-Jan-19 11:30N 01°17' E 103°59'1 1.3
2015-Jan-19 10:33N 01°16' E 103°59'4 3.7
2015-Jan-19 09:32N 01°16' E 104°02'8 8.0
2015-Jan-19 08:33N 01°17' E 104°10'  
2015-Jan-16 02:26S 04°18' E 115°02'9 8.6
2015-Jan-16 01:21S 04°09' E 115°05'  

Dump ship's entire track history